Time;durP1;ratioP1;P1;durP2;ratioP2;P2;SDS_P1;SDS_P2;PMS_P1;PMS_P2;Temp;Humidity;BMP_temperature;BMP_pressure;BME280_temperature;BME280_humidity;BME280_pressure;Samples;Min_cycle;Max_cycle;Signal;HPM_P1;HPM_P2
2023/12/19 00:01:27;;;;;;;31.95;29.48;;;;;;;0.35;100.00;102286.50;4986775;28;20838;-75
2023/12/19 00:03:54;;;;;;;29.55;27.35;;;;;;;0.13;100.00;102287.06;4974251;28;20130;-75
2023/12/19 00:06:23;;;;;;;31.10;28.75;;;;;;;0.22;100.00;102290.88;4990153;28;20054;-77
2023/12/19 00:08:53;;;;;;;31.20;28.80;;;;;;;0.18;100.00;102284.16;4989999;28;20609;-75
2023/12/19 00:11:20;;;;;;;31.90;29.50;;;;;;;0.39;100.00;102284.53;4976431;28;20061;-76
2023/12/19 00:13:47;;;;;;;33.80;31.20;;;;;;;0.52;100.00;102282.78;4988885;28;20459;-75
2023/12/19 00:16:14;;;;;;;28.85;26.65;;;;;;;0.64;100.00;102278.53;4986769;28;20051;-75
2023/12/19 00:18:51;;;;;;;30.20;27.90;;;;;;;0.48;100.00;102273.44;4985055;28;20054;-76
2023/12/19 00:21:18;;;;;;;28.52;26.42;;;;;;;0.04;100.00;102286.84;4980454;28;20085;-75
2023/12/19 00:23:45;;;;;;;27.95;25.75;;;;;;;-0.20;100.00;102281.41;4985393;28;20531;-75
2023/12/19 00:26:13;;;;;;;30.75;28.45;;;;;;;-0.08;100.00;102293.69;4990145;28;20129;-75
2023/12/19 00:28:43;;;;;;;32.63;30.15;;;;;;;0.13;100.00;102296.69;4988736;28;20049;-75
2023/12/19 00:31:19;;;;;;;38.35;35.35;;;;;;;0.19;100.00;102294.53;4989549;28;20192;-75
2023/12/19 00:33:46;;;;;;;32.47;29.98;;;;;;;0.63;100.00;102295.97;4989650;28;20061;-75
2023/12/19 00:36:19;;;;;;;34.40;31.70;;;;;;;0.89;100.00;102304.69;4990129;28;20061;-75
2023/12/19 00:38:45;;;;;;;31.05;28.55;;;;;;;0.51;100.00;102309.84;4981244;28;20050;-75
2023/12/19 00:41:14;;;;;;;31.75;29.25;;;;;;;0.38;100.00;102303.78;4979937;28;20055;-75
2023/12/19 00:43:42;;;;;;;31.45;28.75;;;;;;;0.37;100.00;102307.34;4980651;28;20538;-76
2023/12/19 00:46:15;;;;;;;35.95;32.85;;;;;;;0.14;100.00;102304.41;4977932;28;20140;-73
2023/12/19 00:48:41;;;;;;;34.65;32.05;;;;;;;0.06;100.00;102295.41;4983438;28;20050;-74
2023/12/19 00:51:18;;;;;;;33.05;30.55;;;;;;;0.16;100.00;102301.72;4989593;28;20425;-74
2023/12/19 00:53:44;;;;;;;31.08;28.67;;;;;;;-0.14;100.00;102292.31;4983876;28;20047;-74
2023/12/19 00:56:12;;;;;;;29.33;27.02;;;;;;;-0.41;100.00;102302.72;4988860;28;20054;-75
2023/12/19 00:58:40;;;;;;;31.23;28.92;;;;;;;-0.31;100.00;102293.34;4982066;28;20054;-74
2023/12/19 01:01:08;;;;;;;32.30;29.80;;;;;;;-0.24;100.00;102294.66;4987527;28;20439;-74
2023/12/19 01:03:35;;;;;;;36.83;33.53;;;;;;;-0.19;100.00;102288.31;4985043;28;20062;-75
2023/12/19 01:06:08;;;;;;;29.98;27.70;;;;;;;-0.20;100.00;102284.84;4981591;28;20667;-74
2023/12/19 01:08:35;;;;;;;35.05;32.35;;;;;;;-0.39;100.00;102281.72;4988692;28;20050;-74
2023/12/19 01:11:02;;;;;;;30.10;27.70;;;;;;;-0.32;100.00;102280.41;4988664;28;20631;-74
2023/12/19 01:13:29;;;;;;;32.95;30.55;;;;;;;-0.57;100.00;102275.91;4988828;28;20058;-75
2023/12/19 01:15:57;;;;;;;29.90;27.70;;;;;;;-0.54;100.00;102267.88;4990172;28;20082;-75
2023/12/19 01:18:24;;;;;;;29.00;26.75;;;;;;;-0.72;100.00;102273.28;4984992;28;20058;-75
2023/12/19 01:20:51;;;;;;;26.85;24.75;;;;;;;-0.42;100.00;102268.84;4988866;28;20492;-75
2023/12/19 01:23:18;;;;;;;33.05;30.27;;;;;;;-0.13;100.00;102285.28;4985470;28;20050;-75
2023/12/19 01:25:45;;;;;;;34.78;31.95;;;;;;;-0.30;100.00;102286.38;4985958;28;20129;-75
2023/12/19 01:28:13;;;;;;;29.30;27.20;;;;;;;-0.29;100.00;102285.44;4986633;28;20062;-75
2023/12/19 01:30:41;;;;;;;30.80;28.30;;;;;;;-0.29;100.00;102288.06;4984087;28;20068;-75
2023/12/19 01:33:19;;;;;;;26.65;24.58;;;;;;;-0.21;100.00;102288.41;4991519;28;20202;-76
2023/12/19 01:35:50;;;;;;;28.95;26.75;;;;;;;-0.52;100.00;102284.25;4993172;28;20433;-75
2023/12/19 01:38:17;;;;;;;37.17;34.58;;;;;;;-0.64;100.00;102270.19;4989474;28;20042;-75
2023/12/19 01:40:44;;;;;;;29.25;26.85;;;;;;;-0.71;100.00;102276.72;4990063;28;20072;-74
2023/12/19 01:43:19;;;;;;;27.52;25.52;;;;;;;-0.67;100.00;102274.78;4995274;28;20073;-75
2023/12/19 01:45:46;;;;;;;29.30;27.02;;;;;;;-0.67;100.00;102274.78;4989777;28;20062;-75
2023/12/19 01:48:30;;;;;;;32.47;30.08;;;;;;;-0.60;100.00;102274.31;5003060;28;20516;-75
2023/12/19 01:50:58;;;;;;;27.70;25.40;;;;;;;-0.70;100.00;102274.03;4992652;28;20508;-75
2023/12/19 01:53:25;;;;;;;29.38;27.13;;;;;;;-0.82;100.00;102273.94;4992626;28;20046;-76
2023/12/19 01:55:56;;;;;;;30.42;28.20;;;;;;;-0.75;100.00;102275.25;4990898;28;20054;-75
2023/12/19 01:58:23;;;;;;;30.55;27.50;;;;;;;-0.46;100.00;102265.59;4992479;28;20832;-77
2023/12/19 02:00:51;;;;;;;30.77;28.58;;;;;;;-0.43;100.00;102273.25;4991961;28;20050;-75
2023/12/19 02:03:18;;;;;;;28.48;26.38;;;;;;;-0.60;100.00;102268.25;4982770;28;20101;-76
2023/12/19 02:05:51;;;;;;;27.60;25.52;;;;;;;-0.48;100.00;102275.31;4984185;28;20069;-75
2023/12/19 02:08:19;;;;;;;29.13;27.05;;;;;;;-0.41;100.00;102270.56;4992880;28;20507;-75
2023/12/19 02:10:46;;;;;;;25.52;23.63;;;;;;;-0.58;100.00;102263.75;4983041;28;20050;-75
2023/12/19 02:13:13;;;;;;;29.83;27.63;;;;;;;-0.42;100.00;102266.25;4983751;28;20526;-75
2023/12/19 02:15:40;;;;;;;31.92;29.52;;;;;;;-0.16;100.00;102267.22;4986684;28;20054;-75
2023/12/19 02:18:17;;;;;;;29.63;27.42;;;;;;;-0.22;100.00;102265.81;4990328;28;20058;-75
2023/12/19 02:20:45;;;;;;;28.40;26.23;;;;;;;-0.44;100.00;102257.69;4993529;28;20442;-75
2023/12/19 02:23:14;;;;;;;29.90;27.73;;;;;;;-0.35;100.00;102257.94;4994720;28;20064;-74
2023/12/19 02:25:53;;;;;;;29.25;27.05;;;;;;;-0.34;100.00;102257.00;4992344;28;20058;-73
2023/12/19 02:28:20;;;;;;;31.00;28.80;;;;;;;-0.29;100.00;102254.09;4994529;28;20060;-74
2023/12/19 02:30:53;;;;;;;31.50;29.20;;;;;;;-0.28;100.00;102251.38;4992112;28;20046;-74
2023/12/19 02:33:20;;;;;;;32.88;30.38;;;;;;;-0.28;100.00;102251.38;4993835;28;20061;-75
2023/12/19 02:35:46;;;;;;;30.27;28.15;;;;;;;-0.28;100.00;102246.16;4992436;28;20073;-75
2023/12/19 02:38:15;;;;;;;28.52;26.50;;;;;;;-0.15;100.00;102242.75;4978895;28;20054;-76
2023/12/19 02:40:42;;;;;;;29.50;27.30;;;;;;;0.01;100.00;102238.22;4991539;28;20054;-75
2023/12/19 02:43:08;;;;;;;30.77;28.67;;;;;;;-0.29;100.00;102236.66;4991601;28;20053;-76
2023/12/19 02:45:42;;;;;;;31.73;29.55;;;;;;;-0.54;100.00;102234.78;4997639;28;20100;-75
2023/12/19 02:48:09;;;;;;;31.60;29.40;;;;;;;-0.31;100.00;102235.91;4992436;28;20122;-75
2023/12/19 02:50:36;;;;;;;30.20;27.90;;;;;;;-0.33;100.00;102232.56;4996631;28;20080;-76
2023/12/19 02:53:03;;;;;;;32.33;30.02;;;;;;;-0.37;100.00;102233.69;4977055;28;20057;-75
2023/12/19 02:55:31;;;;;;;28.70;26.70;;;;;;;-0.30;100.00;102239.38;4991294;28;20435;-75
2023/12/19 02:57:58;;;;;;;35.65;33.25;;;;;;;-0.44;100.00;102231.59;4991107;28;20054;-75
2023/12/19 03:00:25;;;;;;;28.73;26.65;;;;;;;-0.46;100.00;102231.66;5003595;28;20050;-75
2023/12/19 03:02:52;;;;;;;30.75;28.65;;;;;;;-0.38;100.00;102229.41;4991268;28;20089;-76
2023/12/19 03:05:19;;;;;;;28.80;26.70;;;;;;;-0.17;100.00;102234.22;4987708;28;20808;-77
2023/12/19 03:07:46;;;;;;;27.90;25.90;;;;;;;-0.07;100.00;102232.66;4982630;28;20042;-75
2023/12/19 03:10:14;;;;;;;26.90;25.00;;;;;;;0.02;100.00;102237.28;4988128;28;20066;-74
2023/12/19 03:12:42;;;;;;;27.90;25.90;;;;;;;-0.01;100.00;102232.25;4991421;28;20062;-76
2023/12/19 03:15:09;;;;;;;34.17;31.85;;;;;;;-0.09;100.00;102224.94;4992602;28;20046;-75
2023/12/19 03:17:47;;;;;;;32.03;29.70;;;;;;;-0.05;100.00;102225.56;4984072;28;20066;-75
2023/12/19 03:20:31;;;;;;;31.67;29.38;;;;;;;0.02;100.00;102221.63;4991081;28;20059;-75
2023/12/19 03:22:57;;;;;;;36.33;33.80;;;;;;;-0.07;100.00;102230.06;4985732;28;20867;-75
2023/12/19 03:25:24;;;;;;;28.80;26.70;;;;;;;-0.18;100.00;102230.75;4982408;28;20053;-76
2023/12/19 03:27:55;;;;;;;27.80;25.80;;;;;;;-0.30;100.00;102239.38;4991218;28;20050;-75
2023/12/19 03:30:22;;;;;;;30.42;28.13;;;;;;;-0.28;100.00;102235.72;4987242;28;20050;-75
2023/12/19 03:32:49;;;;;;;30.52;28.23;;;;;;;-0.22;100.00;102231.03;4981940;28;20058;-75
2023/12/19 03:35:23;;;;;;;30.42;28.13;;;;;;;-0.26;100.00;102243.47;4990930;28;20065;-75
2023/12/19 03:37:50;;;;;;;29.58;27.38;;;;;;;-0.27;100.00;102239.19;4994723;28;20081;-75
2023/12/19 03:40:19;;;;;;;30.38;28.08;;;;;;;-0.17;100.00;102231.59;4984125;28;20516;-75
2023/12/19 03:42:46;;;;;;;26.77;24.77;;;;;;;-0.19;100.00;102239.50;4990296;28;20046;-76
2023/12/19 03:45:20;;;;;;;27.30;25.30;;;;;;;-0.15;100.00;102253.22;4989896;28;20069;-76
2023/12/19 03:47:53;;;;;;;27.92;25.83;;;;;;;-0.09;100.00;102248.44;4987651;28;20652;-76
2023/12/19 03:50:20;;;;;;;28.17;26.17;;;;;;;-0.21;100.00;102248.38;4985532;28;20455;-76
2023/12/19 03:52:47;;;;;;;27.58;25.48;;;;;;;-0.43;100.00;102246.31;4994879;28;20054;-74
2023/12/19 03:55:14;;;;;;;27.73;25.70;;;;;;;-0.32;100.00;102246.47;4985542;28;20058;-74
2023/12/19 03:57:44;;;;;;;28.40;26.30;;;;;;;-0.65;100.00;102262.47;4985435;28;20062;-74
2023/12/19 04:00:12;;;;;;;30.65;28.25;;;;;;;-0.64;100.00;102245.88;4982768;28;20042;-75
2023/12/19 04:02:40;;;;;;;30.13;27.80;;;;;;;-0.70;100.00;102247.09;4985123;28;20055;-75
2023/12/19 04:05:08;;;;;;;28.83;26.73;;;;;;;-0.69;100.00;102246.19;4980890;28;20057;-75
2023/12/19 04:07:41;;;;;;;32.25;29.98;;;;;;;-0.60;100.00;102245.59;4998183;28;20049;-75
2023/12/19 04:10:16;;;;;;;26.75;24.85;;;;;;;-0.42;100.00;102241.00;4988624;28;20054;-75
2023/12/19 04:12:43;;;;;;;27.20;24.95;;;;;;;-0.60;100.00;102234.31;4995262;28;20061;-75
2023/12/19 04:15:11;;;;;;;26.08;24.27;;;;;;;-0.70;100.00;102236.66;4985871;28;20439;-75
2023/12/19 04:17:42;;;;;;;25.40;23.38;;;;;;;-0.53;100.00;102235.59;4992694;28;20054;-75
2023/12/19 04:20:18;;;;;;;26.20;24.40;;;;;;;-0.56;100.00;102239.25;4982321;28;20065;-75
2023/12/19 04:22:51;;;;;;;25.35;23.35;;;;;;;-0.48;100.00;102239.59;4983433;28;20042;-75
2023/12/19 04:25:18;;;;;;;26.45;24.48;;;;;;;-0.46;100.00;102234.28;4984535;28;20062;-74
2023/12/19 04:27:46;;;;;;;26.25;24.35;;;;;;;-0.41;100.00;102249.66;4987083;28;20444;-77
2023/12/19 04:30:13;;;;;;;23.95;22.25;;;;;;;-0.55;100.00;102248.75;4984677;28;21013;-74
2023/12/19 04:32:40;;;;;;;25.00;23.20;;;;;;;-0.65;100.00;102254.66;4987389;28;20050;-75
2023/12/19 04:35:09;;;;;;;27.20;25.15;;;;;;;-1.01;100.00;102251.59;4989708;28;20062;-75
2023/12/19 04:37:37;;;;;;;26.10;24.20;;;;;;;-1.19;100.00;102243.09;4985313;28;20047;-75
2023/12/19 04:40:04;;;;;;;28.17;26.17;;;;;;;-1.20;100.00;102238.00;4981955;28;20882;-75
2023/12/19 04:42:32;;;;;;;27.15;25.25;;;;;;;-1.12;100.00;102243.59;4972069;28;20058;-75
2023/12/19 04:44:59;;;;;;;27.27;25.48;;;;;;;-1.38;100.00;102247.75;4987068;28;20056;-75
2023/12/19 04:47:30;;;;;;;27.23;25.33;;;;;;;-1.64;100.00;102252.69;4985438;28;20054;-74
2023/12/19 04:49:59;;;;;;;29.13;27.02;;;;;;;-1.56;100.00;102248.81;4989664;28;20046;-74
2023/12/19 04:52:44;;;;;;;26.83;24.92;;;;;;;-1.25;100.00;102260.88;4988589;28;20689;-73
2023/12/19 04:55:11;;;;;;;27.15;25.10;;;;;;;-0.90;100.00;102257.94;4985381;28;20443;-74
2023/12/19 04:57:38;;;;;;;32.60;30.10;;;;;;;2.91;100.00;102260.38;4993164;28;20537;-75
2023/12/19 05:00:06;;;;;;;28.35;26.10;;;;;;;0.33;100.00;102271.84;4980386;28;20051;-74
2023/12/19 05:02:33;;;;;;;22.85;21.15;;;;;;;-1.10;100.00;102262.56;4980600;28;20090;-73
2023/12/19 05:05:01;;;;;;;29.02;26.70;;;;;;;-1.28;100.00;102274.94;4979646;28;20462;-75
2023/12/19 05:07:28;;;;;;;27.95;25.77;;;;;;;-1.20;100.00;102285.75;4988061;28;20140;-74
2023/12/19 05:09:56;;;;;;;26.48;24.38;;;;;;;-1.15;100.00;102288.06;4996310;28;20050;-75
2023/12/19 05:12:24;;;;;;;25.25;23.13;;;;;;;-1.29;100.00;102288.91;4980060;28;20046;-75
2023/12/19 05:14:51;;;;;;;24.38;22.63;;;;;;;-1.40;100.00;102292.13;4987214;28;20508;-75
2023/12/19 05:17:18;;;;;;;28.45;25.95;;;;;;;-1.44;100.00;102288.03;4981764;28;20125;-76
2023/12/19 05:19:45;;;;;;;26.05;24.15;;;;;;;-1.54;100.00;102289.50;4976835;28;20051;-75
2023/12/19 05:22:12;;;;;;;23.33;21.80;;;;;;;-1.55;100.00;102289.59;4985290;28;20451;-76
2023/12/19 05:24:38;;;;;;;25.02;23.20;;;;;;;-1.40;100.00;102281.69;4989733;28;20046;-73
2023/12/19 05:27:10;;;;;;;27.17;25.08;;;;;;;-1.31;100.00;102282.94;4982163;28;20055;-74
2023/12/19 05:29:37;;;;;;;24.63;23.03;;;;;;;-1.52;100.00;102277.22;4978556;28;20058;-73
2023/12/19 05:32:04;;;;;;;28.40;26.38;;;;;;;-1.56;100.00;102274.88;4975748;28;20058;-76
2023/12/19 05:34:31;;;;;;;28.63;26.50;;;;;;;-1.54;100.00;102276.47;4971634;28;20058;-74
2023/12/19 05:36:58;;;;;;;27.40;25.55;;;;;;;-1.23;100.00;102274.69;4994130;28;20054;-73
2023/12/19 05:39:25;;;;;;;26.65;24.77;;;;;;;-1.48;100.00;102276.13;4965345;28;20046;-75
2023/12/19 05:41:56;;;;;;;26.88;25.08;;;;;;;-1.34;100.00;102267.47;4987699;28;20054;-75
2023/12/19 05:44:24;;;;;;;27.70;25.90;;;;;;;-0.99;100.00;102272.38;4974019;28;20132;-75
2023/12/19 05:46:51;;;;;;;27.27;25.48;;;;;;;-0.85;100.00;102280.16;4978164;28;20051;-74
2023/12/19 05:49:18;;;;;;;28.95;27.02;;;;;;;-0.88;100.00;102274.31;4996942;28;20488;-74
2023/12/19 05:51:45;;;;;;;26.10;24.40;;;;;;;-0.75;100.00;102275.25;4990239;28;20061;-74
2023/12/19 05:54:24;;;;;;;27.75;25.95;;;;;;;-0.90;100.00;102266.59;4980812;28;20058;-75
2023/12/19 05:56:51;;;;;;;27.33;25.10;;;;;;;-1.03;100.00;102273.47;4978317;28;20057;-75
2023/12/19 05:59:18;;;;;;;25.05;23.45;;;;;;;-0.94;100.00;102271.16;4971787;28;20535;-75
2023/12/19 06:01:46;;;;;;;25.13;23.42;;;;;;;-1.10;100.00;102267.78;4996211;28;20115;-76
2023/12/19 06:04:13;;;;;;;27.75;25.75;;;;;;;-1.03;100.00;102268.25;4999873;28;20627;-76
2023/12/19 06:06:44;;;;;;;27.15;25.30;;;;;;;-1.01;100.00;102269.84;4976718;28;20070;-75
2023/12/19 06:09:11;;;;;;;28.20;26.08;;;;;;;-0.89;100.00;102264.81;4969712;28;20058;-76
2023/12/19 06:11:38;;;;;;;28.50;26.60;;;;;;;-0.63;100.00;102260.63;4971139;28;20054;-76
2023/12/19 06:14:05;;;;;;;31.35;29.25;;;;;;;-0.07;100.00;102261.41;4974661;28;20058;-76
2023/12/19 06:16:32;;;;;;;34.38;31.98;;;;;;;0.23;100.00;102269.84;4989026;28;20062;-76
2023/12/19 06:19:05;;;;;;;37.92;35.15;;;;;;;0.77;100.00;102266.28;4973152;28;20473;-76
2023/12/19 06:21:40;;;;;;;38.63;35.90;;;;;;;0.97;100.00;102264.06;4991623;28;20038;-76
2023/12/19 06:24:08;;;;;;;40.90;37.95;;;;;;;1.37;100.00;102257.75;4984383;28;20133;-76
2023/12/19 06:26:38;;;;;;;44.88;41.47;;;;;;;1.80;100.00;102257.28;4983032;28;20054;-76
2023/12/19 06:29:08;;;;;;;43.45;40.30;;;;;;;2.26;100.00;102263.56;4991565;28;20417;-76
2023/12/19 06:31:42;;;;;;;51.47;47.53;;;;;;;2.74;100.00;102261.66;4981346;28;20113;-77
2023/12/19 06:34:10;;;;;;;49.40;45.70;;;;;;;3.31;100.00;102259.06;4990175;28;20152;-77
2023/12/19 06:36:41;;;;;;;47.20;43.60;;;;;;;4.06;100.00;102267.03;4989497;28;20520;-77
2023/12/19 06:39:08;;;;;;;51.95;48.13;;;;;;;4.02;100.00;102273.47;4978000;28;20113;-77
2023/12/19 06:41:35;;;;;;;47.03;43.47;;;;;;;4.37;100.00;102269.75;4986919;28;20066;-77
2023/12/19 06:44:05;;;;;;;37.65;34.70;;;;;;;4.23;100.00;102265.63;4991482;28;20531;-76
2023/12/19 06:46:32;;;;;;;36.35;33.50;;;;;;;4.61;100.00;102260.78;4991773;28;20058;-75
2023/12/19 06:48:59;;;;;;;34.20;31.50;;;;;;;4.77;100.00;102264.59;4979397;28;20054;-75
2023/12/19 06:51:28;;;;;;;35.22;32.58;;;;;;;4.12;100.00;102258.63;4978698;28;20072;-75
2023/12/19 06:53:56;;;;;;;33.35;30.85;;;;;;;4.33;100.00;102258.66;4976890;28;20519;-74
2023/12/19 06:56:26;;;;;;;33.38;30.77;;;;;;;4.08;100.00;102248.47;4990567;28;20054;-78
2023/12/19 06:58:54;;;;;;;36.10;33.33;;;;;;;4.07;100.00;102252.09;4990589;28;20061;-76
2023/12/19 07:01:20;;;;;;;35.33;32.42;;;;;;;4.76;100.00;102257.69;4991691;28;20050;-76
2023/12/19 07:03:47;;;;;;;35.15;32.25;;;;;;;4.48;100.00;102258.31;4991742;28;20058;-77
2023/12/19 07:06:15;;;;;;;33.42;30.83;;;;;;;5.38;100.00;102258.50;4983894;28;20493;-77
2023/12/19 07:08:53;;;;;;;33.63;30.92;;;;;;;6.26;100.00;102253.34;4992374;28;20053;-77
2023/12/19 07:11:21;;;;;;;38.38;33.92;;;;;;;6.59;100.00;102250.25;4991616;28;20046;-75
2023/12/19 07:13:48;;;;;;;36.63;33.35;;;;;;;6.85;100.00;102244.34;4983393;28;20046;-76
2023/12/19 07:16:17;;;;;;;33.38;30.45;;;;;;;7.41;100.00;102242.56;4989118;28;20054;-75
2023/12/19 07:18:46;;;;;;;33.22;30.83;;;;;;;7.02;100.00;102240.97;4986915;28;20506;-76
2023/12/19 07:21:21;;;;;;;37.30;34.60;;;;;;;7.84;100.00;102243.69;4983092;28;20064;-74
2023/12/19 07:23:48;;;;;;;31.65;29.35;;;;;;;8.36;100.00;102241.16;4989852;28;20424;-76
2023/12/19 07:26:27;;;;;;;33.05;30.45;;;;;;;9.04;100.00;102235.16;4989706;28;20081;-75
2023/12/19 07:28:57;;;;;;;31.17;28.88;;;;;;;9.33;100.00;102234.78;4983861;28;20089;-76
2023/12/19 07:31:25;;;;;;;33.85;31.15;;;;;;;7.67;100.00;102240.06;4985988;28;20054;-75
2023/12/19 07:33:57;;;;;;;30.92;28.60;;;;;;;7.64;100.00;102243.81;4996314;28;20050;-75
2023/12/19 07:36:24;;;;;;;31.08;28.70;;;;;;;8.63;100.00;102241.06;4991026;28;20062;-75
2023/12/19 07:38:51;;;;;;;35.33;32.53;;;;;;;8.86;100.00;102243.16;4985514;28;20447;-76
2023/12/19 07:41:18;;;;;;;33.33;30.58;;;;;;;9.66;100.00;102242.81;4979228;28;20067;-75
2023/12/19 07:43:47;;;;;;;33.35;30.65;;;;;;;10.42;100.00;102241.75;4971874;28;20051;-77
2023/12/19 07:46:24;;;;;;;31.70;29.15;;;;;;;10.41;100.00;102240.06;4971613;28;20420;-77
2023/12/19 07:48:53;;;;;;;32.75;30.00;;;;;;;11.24;100.00;102218.41;4976439;28;20699;-77
2023/12/19 07:51:23;;;;;;;34.05;31.45;;;;;;;11.42;100.00;102208.34;4982933;28;20508;-77
2023/12/19 07:53:50;;;;;;;34.85;31.70;;;;;;;11.64;100.00;102217.34;4978059;28;20466;-75
2023/12/19 07:56:17;;;;;;;35.67;32.22;;;;;;;12.29;100.00;102213.38;4986846;28;20051;-74
2023/12/19 07:58:44;;;;;;;32.38;29.77;;;;;;;11.23;100.00;102217.59;4986107;28;20408;-74
2023/12/19 08:01:12;;;;;;;33.35;30.58;;;;;;;11.39;100.00;102218.50;4991626;28;20057;-74
2023/12/19 08:03:43;;;;;;;33.42;30.58;;;;;;;11.92;100.00;102214.16;4977669;28;20058;-76
2023/12/19 08:06:19;;;;;;;32.95;30.35;;;;;;;12.54;100.00;102208.63;4990549;28;20425;-77
2023/12/19 08:08:49;;;;;;;31.48;28.77;;;;;;;12.60;100.00;102210.56;4990576;28;20054;-76
2023/12/19 08:11:17;;;;;;;27.52;25.33;;;;;;;13.25;100.00;102210.81;4990012;28;20050;-75
2023/12/19 08:13:44;;;;;;;31.75;28.98;;;;;;;13.22;100.00;102212.00;4970899;28;20050;-74
2023/12/19 08:16:13;;;;;;;27.95;25.75;;;;;;;13.06;100.00;102220.19;4984564;28;20125;-77
2023/12/19 08:18:39;;;;;;;26.80;24.80;;;;;;;13.62;100.00;102209.00;4984083;28;20060;-77
2023/12/19 08:21:06;;;;;;;27.42;25.42;;;;;;;13.97;100.00;102215.25;4989505;28;20054;-77
2023/12/19 08:23:33;;;;;;;27.40;25.35;;;;;;;14.76;100.00;102206.19;4986448;28;20441;-76
2023/12/19 08:26:00;;;;;;;24.00;22.30;;;;;;;14.71;100.00;102206.00;4991310;28;20053;-77
2023/12/19 08:28:27;;;;;;;25.40;23.42;;;;;;;14.58;100.00;102204.88;4990183;28;20081;-77
2023/12/19 08:31:05;;;;;;;24.38;22.65;;;;;;;14.16;100.00;102206.59;4988746;28;20053;-76
2023/12/19 08:33:34;;;;;;;24.33;22.63;;;;;;;15.39;100.00;102192.66;4977889;28;20055;-75
2023/12/19 08:36:01;;;;;;;23.70;22.00;;;;;;;14.84;100.00;102201.53;4979319;28;20504;-75
2023/12/19 08:38:28;;;;;;;24.30;22.60;;;;;;;15.27;100.00;102184.41;4981299;28;20054;-76
2023/12/19 08:41:12;;;;;;;24.95;23.25;;;;;;;13.43;100.00;102191.72;4975164;28;20549;-75
2023/12/19 08:43:39;;;;;;;23.13;21.52;;;;;;;15.40;100.00;102191.63;4982363;28;20058;-75
2023/12/19 08:46:07;;;;;;;23.80;22.10;;;;;;;15.71;100.00;102185.78;4979616;28;20046;-76
2023/12/19 08:48:35;;;;;;;26.13;24.42;;;;;;;12.36;100.00;102179.66;4992175;28;20500;-75
2023/12/19 08:51:04;;;;;;;23.20;21.60;;;;;;;12.28;100.00;102178.91;4985192;28;20057;-76
2023/12/19 08:53:33;;;;;;;22.75;21.15;;;;;;;13.59;100.00;102174.66;4988154;28;20058;-76
2023/12/19 08:56:00;;;;;;;22.98;21.33;;;;;;;12.83;100.00;102161.66;4984896;28;20056;-75
2023/12/19 08:58:27;;;;;;;25.40;23.70;;;;;;;12.81;100.00;102155.69;4993388;28;20064;-75
2023/12/19 09:00:55;;;;;;;23.50;21.90;;;;;;;15.41;100.00;102145.13;4969931;28;20039;-75
2023/12/19 09:03:23;;;;;;;22.77;21.17;;;;;;;14.84;100.00;102144.53;5008508;28;20050;-76
2023/12/19 09:05:51;;;;;;;23.63;21.92;;;;;;;15.32;100.00;102139.94;4988600;28;20053;-75
2023/12/19 09:08:19;;;;;;;25.08;23.40;;;;;;;14.86;100.00;102135.28;4991322;28;20056;-75
2023/12/19 09:10:47;;;;;;;24.35;22.55;;;;;;;14.30;100.00;102142.56;4972334;28;20058;-76
2023/12/19 09:13:15;;;;;;;23.05;21.25;;;;;;;12.47;100.00;102143.75;5000189;28;20065;-76
2023/12/19 09:15:46;;;;;;;21.98;20.38;;;;;;;12.49;100.00;102127.56;4977999;28;20113;-76
2023/12/19 09:18:16;;;;;;;21.98;20.38;;;;;;;13.71;100.00;102117.88;4981471;28;20050;-75
2023/12/19 09:20:44;;;;;;;22.88;21.27;;;;;;;14.33;100.00;102116.25;4977149;28;20061;-75
2023/12/19 09:23:16;;;;;;;22.35;20.67;;;;;;;14.92;100.00;102117.63;4980997;28;20105;-75
2023/12/19 09:25:43;;;;;;;24.05;22.35;;;;;;;14.24;100.00;102117.44;4976455;28;20050;-75
2023/12/19 09:28:10;;;;;;;23.13;21.42;;;;;;;12.76;100.00;102102.09;4991990;28;20053;-75
2023/12/19 09:30:37;;;;;;;23.75;22.05;;;;;;;14.99;100.00;102096.22;4978150;28;20047;-76
2023/12/19 09:33:04;;;;;;;23.70;21.90;;;;;;;15.27;100.00;102093.41;4980839;28;20057;-76
2023/12/19 09:35:32;;;;;;;23.90;22.10;;;;;;;13.44;100.00;102090.13;4988730;28;20061;-76
2023/12/19 09:38:01;;;;;;;23.10;21.30;;;;;;;15.22;100.00;102085.13;4985351;28;20058;-76
2023/12/19 09:40:30;;;;;;;23.52;21.83;;;;;;;14.06;100.00;102080.53;4972149;28;20321;-75
2023/12/19 09:42:58;;;;;;;25.50;23.60;;;;;;;12.60;100.00;102069.31;4972009;28;20158;-75
2023/12/19 09:45:26;;;;;;;24.02;22.13;;;;;;;13.63;100.00;102066.47;4971797;28;20623;-75
2023/12/19 09:47:59;;;;;;;24.65;22.85;;;;;;;13.20;100.00;102067.28;4974747;28;20050;-75
2023/12/19 09:50:27;;;;;;;22.80;21.20;;;;;;;14.96;100.00;102059.19;4973834;28;20061;-76
2023/12/19 09:52:56;;;;;;;21.65;20.05;;;;;;;14.84;100.00;102056.25;4977395;28;20057;-76
2023/12/19 09:55:23;;;;;;;24.88;20.52;;;;;;;15.77;100.00;102059.06;4976308;28;20503;-75
2023/12/19 09:57:56;;;;;;;21.60;19.90;;;;;;;12.47;100.00;102071.00;4977420;28;20054;-76
2023/12/19 10:00:25;;;;;;;;;;;;;;;13.61;100.00;102057.81;4977270;28;20051;-75
2023/12/19 10:02:54;;;;;;;23.00;21.30;;;;;;;15.97;100.00;102050.97;4981331;28;19973;-74
2023/12/19 10:05:21;;;;;;;21.95;20.25;;;;;;;14.12;100.00;102055.72;4976150;28;20058;-75
2023/12/19 10:07:48;;;;;;;21.85;20.15;;;;;;;13.12;100.00;102059.41;4990728;28;20077;-75
2023/12/19 10:10:15;;;;;;;22.00;20.30;;;;;;;14.05;100.00;102057.53;4974211;28;20078;-75
2023/12/19 10:12:49;;;;;;;22.45;20.75;;;;;;;14.93;100.00;102047.03;4990093;28;20050;-75
2023/12/19 10:15:18;;;;;;;23.95;22.05;;;;;;;13.42;100.00;102038.78;4988900;28;20489;-75
2023/12/19 10:18:11;;;;;;;24.10;22.23;;;;;;;12.83;100.00;102047.03;4999880;28;20069;-75
2023/12/19 10:20:38;;;;;;;24.88;23.08;;;;;;;13.27;100.00;102046.03;4986436;28;20066;-76
2023/12/19 10:23:05;;;;;;;23.02;21.25;;;;;;;12.31;100.00;102035.50;4989065;28;20051;-76
2023/12/19 10:25:33;;;;;;;24.30;22.40;;;;;;;14.18;100.00;102036.22;4982169;28;20046;-76
2023/12/19 10:28:10;;;;;;;22.70;21.00;;;;;;;12.10;100.00;102032.78;4992119;28;20136;-75
2023/12/19 10:30:40;;;;;;;22.65;20.85;;;;;;;13.31;100.00;102028.63;4991510;28;20542;-76
2023/12/19 10:33:07;;;;;;;23.65;21.85;;;;;;;14.40;100.00;102012.91;4992393;28;20050;-75
2023/12/19 10:35:38;;;;;;;24.05;22.25;;;;;;;15.70;100.00;102021.56;4988100;28;20054;-76
2023/12/19 10:38:05;;;;;;;21.55;19.88;;;;;;;15.61;100.00;102016.59;4985499;28;20512;-75
2023/12/19 10:40:32;;;;;;;22.95;21.15;;;;;;;14.76;100.00;102001.09;4991965;28;20413;-76
2023/12/19 10:43:00;;;;;;;25.95;23.95;;;;;;;14.94;100.00;102007.72;4984632;28;20055;-74
2023/12/19 10:45:27;;;;;;;24.30;22.50;;;;;;;14.97;100.00;102005.44;4977694;28;20058;-74
2023/12/19 10:47:56;;;;;;;22.90;21.10;;;;;;;17.52;98.97;101997.94;4988324;28;20073;-74
2023/12/19 10:50:23;;;;;;;25.05;23.15;;;;;;;14.32;100.00;102002.38;4993935;28;20125;-74
2023/12/19 10:52:51;;;;;;;23.02;21.23;;;;;;;17.60;99.71;101992.25;4989434;28;20056;-76
2023/12/19 10:55:21;;;;;;;23.23;21.40;;;;;;;14.79;100.00;101989.16;4987139;28;20819;-74
2023/12/19 10:57:50;;;;;;;24.20;22.23;;;;;;;13.86;100.00;101983.47;4972935;28;20076;-75
2023/12/19 11:00:22;;;;;;;28.38;26.27;;;;;;;16.23;100.00;101969.69;4973280;28;20109;-74
2023/12/19 11:03:05;;;;;;;25.85;23.85;;;;;;;15.06;100.00;101971.31;4989559;28;20054;-73
2023/12/19 11:05:40;;;;;;;23.33;21.42;;;;;;;14.59;100.00;101973.09;4977147;28;20054;-75
2023/12/19 11:08:13;;;;;;;27.85;25.80;;;;;;;16.45;100.00;101962.13;4991305;28;20054;-74
2023/12/19 11:10:41;;;;;;;25.30;23.40;;;;;;;15.08;100.00;101970.06;4988147;28;20058;-75
2023/12/19 11:13:12;;;;;;;23.25;21.35;;;;;;;16.45;100.00;101960.28;4979126;28;20054;-75